LIPH/TSF METAR and TAF weather

Enter ICAO airport designator
Station Type Date Time Source
LIPH METAR 2019/06/17 14:20 UTC NOAA

LIPH 171420Z 06005KT 040V110 CAVOK 30/16 Q1014


Station Type Date Time Source
LIPH Decoded METAR 2019/06/17 14:20 UTC NOAA

Treviso / S. Angelo, Italy (LIPH) 45-39N 012-11E 23M
Jun 17, 2019 - 10:20 AM EDT / 2019.06.17 1420 UTC
Wind: from the ENE (060 degrees) at 6 MPH (5 KT) (direction variable):0
Visibility: greater than 7 mile(s):0
Temperature: 86 F (30 C)
Dew Point: 60 F (16 C)
Relative Humidity: 42%
Pressure (altimeter): 29.94 in. Hg (1014 hPa)
ob: LIPH 171420Z 06005KT 040V110 CAVOK 30/16 Q1014
cycle: 14

Station Type Date Time Source
LIPH TAF 2019/06/17 12:21 UTC NOAA

TAF LIPH 171100Z 1712/1812 VRB05KT 9999 FEW040
TEMPO 1716/1722 4000 TSRA

Example: see airport list